createdAt,value
2019-04-22T00:00:28.948Z,980.88
2019-04-22T00:01:25.944Z,980.90
2019-04-22T00:02:22.690Z,980.89
2019-04-22T00:03:33.111Z,980.88
2019-04-22T00:04:36.974Z,980.87
2019-04-22T00:05:42.802Z,980.88
2019-04-22T00:06:44.414Z,980.85
2019-04-22T00:07:53.352Z,980.84
2019-04-22T00:08:50.650Z,980.82
2019-04-22T00:09:51.525Z,980.82
2019-04-22T00:10:47.153Z,980.83
2019-04-22T00:11:59.938Z,980.81
2019-04-22T00:12:47.091Z,980.75
2019-04-22T00:14:00.947Z,980.75
2019-04-22T00:14:42.295Z,980.72
2019-04-22T00:15:41.740Z,980.75
2019-04-22T00:16:58.625Z,980.75
2019-04-22T00:17:58.858Z,980.72
2019-04-22T00:19:01.754Z,980.70
2019-04-22T00:19:52.328Z,980.68
2019-04-22T00:20:54.460Z,980.68
2019-04-22T00:21:48.601Z,980.69
2019-04-22T00:22:47.991Z,980.68
2019-04-22T00:23:49.576Z,980.71
2019-04-22T00:24:48.136Z,980.72
2019-04-22T00:25:48.259Z,980.68
2019-04-22T00:26:51.818Z,980.68
2019-04-22T00:27:47.913Z,980.69
2019-04-22T00:28:49.721Z,980.66
2019-04-22T00:30:05.356Z,980.63
2019-04-22T00:30:47.163Z,980.60
2019-04-22T00:31:45.935Z,980.61
2019-04-22T00:32:41.815Z,980.63
2019-04-22T00:33:45.541Z,980.62
2019-04-22T00:34:42.589Z,980.61
2019-04-22T00:35:45.428Z,980.59
2019-04-22T00:36:42.013Z,980.58
2019-04-22T00:37:53.270Z,980.57
2019-04-22T00:38:44.340Z,980.56
2019-04-22T00:39:46.636Z,980.57
2019-04-22T00:40:44.972Z,980.56
2019-04-22T00:41:53.082Z,980.59
2019-04-22T00:42:46.939Z,980.56
2019-04-22T00:43:48.129Z,980.60
2019-04-22T00:44:45.207Z,980.57
2019-04-22T00:45:43.822Z,980.61
2019-04-22T00:46:48.755Z,980.59
2019-04-22T00:47:43.413Z,980.56
2019-04-22T00:48:53.445Z,980.55
2019-04-22T00:50:14.462Z,980.55
2019-04-22T00:50:55.185Z,980.53
2019-04-22T00:51:52.419Z,980.53
2019-04-22T00:52:47.435Z,980.52
2019-04-22T00:53:48.200Z,980.48
2019-04-22T00:54:49.679Z,980.49
2019-04-22T00:55:46.308Z,980.45
2019-04-22T00:56:43.158Z,980.43
2019-04-22T00:57:46.527Z,980.44
2019-04-22T00:59:50.306Z,980.39
2019-04-22T01:00:45.470Z,980.37
2019-04-22T01:01:42.959Z,980.38
2019-04-22T01:02:48.030Z,980.37
2019-04-22T01:03:50.444Z,980.35
2019-04-22T01:04:45.978Z,980.34
2019-04-22T01:05:46.870Z,980.34
2019-04-22T01:06:44.331Z,980.28
2019-04-22T01:07:45.006Z,980.30
2019-04-22T01:08:53.461Z,980.29
2019-04-22T01:10:50.378Z,980.30
2019-04-22T01:11:47.113Z,980.29
2019-04-22T01:12:44.341Z,980.29
2019-04-22T01:13:44.294Z,980.32
2019-04-22T01:14:41.721Z,980.27
2019-04-22T01:16:04.546Z,980.28
2019-04-22T01:16:43.096Z,980.29
2019-04-22T01:17:46.037Z,980.31
2019-04-22T01:18:46.204Z,980.28
2019-04-22T01:19:52.961Z,980.31
2019-04-22T01:22:38.266Z,980.28
2019-04-22T01:23:43.824Z,980.28
2019-04-22T01:24:38.741Z,980.26
2019-04-22T01:25:41.045Z,980.26
2019-04-22T01:26:36.233Z,980.24
2019-04-22T01:27:34.965Z,980.23
2019-04-22T01:28:34.193Z,980.24
2019-04-22T01:29:32.147Z,980.21
2019-04-22T01:30:30.320Z,980.25
2019-04-22T01:31:23.959Z,980.16
2019-04-22T01:32:30.315Z,980.17
2019-04-22T01:33:24.068Z,980.20
2019-04-22T01:34:33.447Z,980.14
2019-04-22T01:35:35.110Z,980.15
2019-04-22T01:36:33.925Z,980.10
2019-04-22T01:37:39.011Z,980.12
2019-04-22T01:38:36.684Z,980.09
2019-04-22T01:39:46.991Z,980.10
2019-04-22T01:40:45.732Z,980.11
2019-04-22T01:42:02.087Z,980.09
2019-04-22T01:42:53.662Z,980.08
2019-04-22T01:43:52.195Z,980.08
2019-04-22T01:44:45.352Z,980.02
2019-04-22T01:45:45.028Z,980.01
2019-04-22T01:46:49.417Z,980.02
2019-04-22T01:47:46.770Z,979.99
2019-04-22T01:48:47.274Z,980.00
2019-04-22T01:49:46.387Z,979.98
2019-04-22T01:50:46.160Z,979.96
2019-04-22T01:51:58.689Z,979.95
2019-04-22T01:52:47.284Z,979.95
2019-04-22T01:53:56.551Z,979.92
2019-04-22T01:55:46.815Z,980.02
2019-04-22T01:56:46.973Z,980.04
2019-04-22T01:57:41.514Z,979.97
2019-04-22T01:58:38.240Z,979.97
2019-04-22T01:59:35.522Z,979.99
2019-04-22T02:00:51.208Z,980.09
2019-04-22T02:01:53.433Z,980.08
2019-04-22T02:02:43.969Z,980.05
2019-04-22T02:03:46.499Z,980.06
2019-04-22T02:04:44.458Z,980.07
2019-04-22T02:05:44.149Z,980.06
2019-04-22T02:06:43.605Z,980.03
2019-04-22T02:07:42.130Z,980.00
2019-04-22T02:08:58.854Z,980.00
2019-04-22T02:09:45.137Z,979.98
2019-04-22T02:10:49.296Z,980.02
2019-04-22T02:11:47.241Z,979.98
2019-04-22T02:12:45.467Z,979.98
2019-04-22T02:13:42.830Z,979.97
2019-04-22T02:14:44.285Z,979.96
2019-04-22T02:15:47.820Z,979.94
2019-04-22T02:16:50.036Z,979.93
2019-04-22T02:17:46.109Z,979.88
2019-04-22T02:18:50.286Z,979.88
2019-04-22T02:19:45.644Z,979.88
2019-04-22T02:20:45.480Z,979.88
2019-04-22T02:21:43.516Z,979.82
2019-04-22T02:23:00.413Z,979.77
2019-04-22T02:24:43.904Z,979.79
2019-04-22T02:25:49.504Z,979.78
2019-04-22T02:26:41.975Z,979.72
2019-04-22T02:27:47.140Z,979.76
2019-04-22T02:28:39.974Z,979.74
2019-04-22T02:29:52.342Z,979.72
2019-04-22T02:31:04.968Z,979.70
2019-04-22T02:31:55.970Z,979.68
2019-04-22T02:33:06.062Z,979.66
2019-04-22T02:36:12.671Z,979.59
2019-04-22T02:36:45.115Z,979.60
2019-04-22T02:37:48.033Z,979.60
2019-04-22T02:38:58.844Z,979.48
2019-04-22T02:39:48.757Z,979.50
2019-04-22T02:41:09.117Z,979.49
2019-04-22T02:42:09.543Z,979.45
2019-04-22T02:42:51.826Z,979.43
2019-04-22T02:43:59.494Z,979.40
2019-04-22T02:44:46.763Z,979.42
2019-04-22T02:46:02.993Z,979.39
2019-04-22T02:47:47.608Z,979.37
2019-04-22T02:50:02.004Z,979.36
2019-04-22T02:50:54.843Z,979.35
2019-04-22T02:51:40.314Z,979.31
2019-04-22T02:53:05.861Z,979.31
2019-04-22T02:54:52.582Z,979.30
2019-04-22T02:55:49.289Z,979.26
2019-04-22T02:56:48.252Z,979.27
2019-04-22T02:57:49.430Z,979.21
2019-04-22T02:59:49.578Z,979.23
2019-04-22T03:00:58.383Z,979.24
2019-04-22T03:01:47.391Z,979.16
2019-04-22T03:04:06.954Z,979.17
2019-04-22T03:04:49.143Z,979.14
2019-04-22T03:05:55.588Z,979.11
2019-04-22T03:06:38.351Z,979.13
2019-04-22T03:07:54.365Z,979.06
2019-04-22T03:08:51.711Z,979.06
2019-04-22T03:09:48.830Z,979.02
2019-04-22T03:12:44.678Z,978.97
2019-04-22T03:14:51.858Z,978.99
2019-04-22T03:15:56.825Z,978.93
2019-04-22T03:17:43.906Z,978.90
2019-04-22T03:20:02.307Z,978.85
2019-04-22T03:20:50.168Z,978.84
2019-04-22T03:21:51.821Z,978.82
2019-04-22T03:22:57.888Z,978.79
2019-04-22T03:37:55.914Z,978.86
2019-04-22T03:41:05.537Z,978.84
2019-04-22T03:43:02.439Z,978.83
2019-04-22T03:45:17.931Z,978.80
2019-04-22T03:46:06.225Z,978.76
2019-04-22T03:48:04.568Z,978.72
2019-04-22T03:50:22.676Z,978.68
2019-04-22T03:51:11.464Z,978.70
2019-04-22T03:52:16.245Z,978.66
2019-04-22T03:54:16.790Z,978.65
2019-04-22T03:55:16.212Z,978.67
2019-04-22T03:56:04.028Z,978.70
2019-04-22T03:58:11.116Z,978.67
2019-04-22T03:59:09.768Z,978.70
2019-04-22T04:02:10.669Z,978.68
2019-04-22T04:03:09.476Z,978.66
2019-04-22T04:04:09.285Z,978.67
2019-04-22T04:04:59.137Z,978.65
2019-04-22T04:05:59.573Z,978.66
2019-04-22T04:07:14.943Z,978.67
2019-04-22T04:09:09.007Z,978.67
2019-04-22T04:10:13.000Z,978.64
2019-04-22T04:12:03.949Z,978.67
2019-04-22T04:15:57.649Z,978.62
2019-04-22T04:17:02.173Z,978.61
2019-04-22T04:17:55.074Z,978.59
2019-04-22T04:19:07.849Z,978.56
2019-04-22T04:21:14.508Z,978.56
2019-04-22T04:23:09.874Z,978.56
2019-04-22T04:24:12.756Z,978.57
2019-04-22T04:25:25.029Z,978.54
2019-04-22T04:26:00.913Z,978.56
2019-04-22T04:27:28.518Z,978.55
2019-04-22T04:29:22.600Z,978.57
2019-04-22T04:30:59.935Z,978.52
2019-04-22T04:31:00.612Z,978.53
2019-04-22T04:32:18.758Z,978.54
2019-04-22T04:34:06.389Z,978.51
2019-04-22T04:37:07.295Z,978.50
2019-04-22T04:37:56.037Z,978.50
2019-04-22T04:39:00.006Z,978.50
2019-04-22T04:41:01.355Z,978.52
2019-04-22T04:43:07.606Z,978.54
2019-04-22T04:47:11.594Z,978.50
2019-04-22T04:48:00.435Z,978.50
2019-04-22T04:49:08.994Z,978.48
2019-04-22T04:52:13.594Z,978.51
2019-04-22T04:54:19.081Z,978.50
2019-04-22T04:55:18.085Z,978.48
2019-04-22T04:56:11.628Z,978.48
2019-04-22T04:57:11.719Z,978.50
2019-04-22T04:58:18.105Z,978.49
2019-04-22T05:00:32.589Z,978.45
2019-04-22T05:01:08.014Z,978.47
2019-04-22T05:02:17.532Z,978.45
2019-04-22T05:04:14.187Z,978.49
2019-04-22T05:06:05.556Z,978.44
2019-04-22T05:07:14.784Z,978.42
2019-04-22T05:08:34.973Z,978.43
2019-04-22T05:10:13.792Z,978.46
2019-04-22T05:11:11.317Z,978.48
2019-04-22T05:12:14.808Z,978.50
2019-04-22T05:14:07.153Z,978.46
2019-04-22T05:15:09.114Z,978.53
2019-04-22T05:16:17.612Z,978.51
2019-04-22T05:17:02.258Z,978.51
2019-04-22T05:18:06.057Z,978.50
2019-04-22T05:20:06.644Z,978.48
2019-04-22T05:21:09.811Z,978.43
2019-04-22T05:22:07.813Z,978.48
2019-04-22T05:23:00.985Z,978.45
2019-04-22T05:24:02.467Z,978.46
2019-04-22T05:25:04.723Z,978.42
2019-04-22T05:26:05.839Z,978.43
2019-04-22T05:27:11.289Z,978.42
2019-04-22T05:28:02.572Z,978.40
2019-04-22T05:28:57.913Z,978.40
2019-04-22T05:30:23.558Z,978.39
2019-04-22T05:31:03.393Z,978.43
2019-04-22T05:31:59.705Z,978.42
2019-04-22T05:32:54.161Z,978.37
2019-04-22T05:33:56.760Z,978.39
2019-04-22T05:34:59.991Z,978.39
2019-04-22T05:36:01.611Z,978.38
2019-04-22T05:37:01.177Z,978.39
2019-04-22T05:38:02.772Z,978.38
2019-04-22T05:39:01.841Z,978.39
2019-04-22T05:39:58.752Z,978.39
2019-04-22T05:40:56.448Z,978.41
2019-04-22T05:41:54.731Z,978.42
2019-04-22T05:42:55.990Z,978.40
2019-04-22T05:44:00.503Z,978.41
2019-04-22T05:44:56.610Z,978.42
2019-04-22T05:45:59.275Z,978.45
2019-04-22T05:46:53.010Z,978.41
2019-04-22T05:47:57.855Z,978.49
2019-04-22T05:49:03.273Z,978.48
2019-04-22T05:49:55.268Z,978.45
2019-04-22T05:50:59.435Z,978.44
2019-04-22T05:51:54.620Z,978.44
2019-04-22T05:52:57.297Z,978.44
2019-04-22T05:53:47.562Z,978.45
2019-04-22T05:54:55.260Z,978.41
2019-04-22T05:55:56.911Z,978.44
2019-04-22T05:56:51.338Z,978.42
2019-04-22T05:57:57.809Z,978.42
2019-04-22T05:58:58.313Z,978.41
2019-04-22T06:00:01.234Z,978.41
2019-04-22T06:01:23.533Z,978.46
2019-04-22T06:02:56.942Z,978.44
2019-04-22T06:03:59.213Z,978.41
2019-04-22T06:04:59.838Z,978.44
2019-04-22T06:05:54.779Z,978.46
2019-04-22T06:06:53.789Z,978.44
2019-04-22T06:07:58.705Z,978.48
2019-04-22T06:09:00.505Z,978.44
2019-04-22T06:09:59.443Z,978.42
2019-04-22T06:11:01.473Z,978.43
2019-04-22T06:11:51.520Z,978.43
2019-04-22T06:12:55.288Z,978.42
2019-04-22T06:13:51.654Z,978.41
2019-04-22T06:14:55.693Z,978.39
2019-04-22T06:15:55.648Z,978.37
2019-04-22T06:16:57.230Z,978.40
2019-04-22T06:18:02.225Z,978.41
2019-04-22T06:18:58.363Z,978.43
2019-04-22T06:20:59.375Z,978.44
2019-04-22T06:22:02.958Z,978.41
2019-04-22T06:22:57.125Z,978.39
2019-04-22T06:24:55.370Z,978.41
2019-04-22T06:27:06.382Z,978.42
2019-04-22T06:27:53.862Z,978.42
2019-04-22T06:28:54.752Z,978.44
2019-04-22T06:30:01.842Z,978.46
2019-04-22T06:30:57.594Z,978.44
2019-04-22T06:32:17.566Z,978.41
2019-04-22T06:33:00.857Z,978.42
2019-04-22T06:34:02.258Z,978.40
2019-04-22T06:35:00.434Z,978.43
2019-04-22T06:35:57.053Z,978.44
2019-04-22T06:37:05.660Z,978.39
2019-04-22T06:38:22.832Z,978.44
2019-04-22T06:38:55.273Z,978.44
2019-04-22T06:39:50.605Z,978.42
2019-04-22T06:40:55.254Z,978.39
2019-04-22T06:41:59.127Z,978.43
2019-04-22T06:42:57.626Z,978.44
2019-04-22T06:44:01.999Z,978.41
2019-04-22T06:44:59.951Z,978.42
2019-04-22T06:45:51.796Z,978.40
2019-04-22T06:46:52.468Z,978.42
2019-04-22T06:48:12.794Z,978.41
2019-04-22T06:48:55.152Z,978.41
2019-04-22T06:49:55.675Z,978.38
2019-04-22T06:50:52.904Z,978.39
2019-04-22T06:51:55.732Z,978.37
2019-04-22T06:52:56.903Z,978.38
2019-04-22T06:53:55.927Z,978.34
2019-04-22T06:54:54.743Z,978.38
2019-04-22T06:55:51.462Z,978.35
2019-04-22T06:56:54.708Z,978.35
2019-04-22T06:57:51.205Z,978.37
2019-04-22T06:58:52.263Z,978.37
2019-04-22T07:00:02.471Z,978.38
2019-04-22T07:00:55.537Z,978.38
2019-04-22T07:01:59.343Z,978.36
2019-04-22T07:03:54.140Z,978.35
2019-04-22T07:04:56.796Z,978.35
2019-04-22T07:05:53.985Z,978.35
2019-04-22T07:06:56.800Z,978.34
2019-04-22T07:07:53.714Z,978.37
2019-04-22T07:09:14.282Z,978.34
2019-04-22T07:09:59.993Z,978.39
2019-04-22T07:10:51.887Z,978.36
2019-04-22T07:11:51.539Z,978.35
2019-04-22T07:12:56.636Z,978.28
2019-04-22T07:14:00.173Z,978.32
2019-04-22T07:14:59.608Z,978.33
2019-04-22T07:16:04.023Z,978.32
2019-04-22T07:16:54.299Z,978.32
2019-04-22T07:17:58.413Z,978.34
2019-04-22T07:19:12.293Z,978.34
2019-04-22T07:19:52.804Z,978.33
2019-04-22T07:20:57.878Z,978.33
2019-04-22T07:21:50.086Z,978.34
2019-04-22T07:22:51.576Z,978.35
2019-04-22T07:24:03.034Z,978.37
2019-04-22T07:24:55.825Z,978.36
2019-04-22T07:25:52.432Z,978.31
2019-04-22T07:26:54.391Z,978.32
2019-04-22T07:27:52.761Z,978.31
2019-04-22T07:28:50.849Z,978.28
2019-04-22T07:29:58.199Z,978.28
2019-04-22T07:30:53.059Z,978.32
2019-04-22T07:31:55.742Z,978.32
2019-04-22T07:33:12.731Z,978.30
2019-04-22T07:33:51.964Z,978.30
2019-04-22T07:34:51.915Z,978.32
2019-04-22T07:36:18.174Z,978.33
2019-04-22T07:36:58.756Z,978.34
2019-04-22T07:37:51.610Z,978.32
2019-04-22T07:38:48.650Z,978.30
2019-04-22T07:39:55.207Z,978.27
2019-04-22T07:40:51.992Z,978.32
2019-04-22T07:41:50.863Z,978.31
2019-04-22T07:42:49.351Z,978.30
2019-04-22T07:44:07.411Z,978.29
2019-04-22T07:45:56.491Z,978.29
2019-04-22T07:46:59.393Z,978.30
2019-04-22T07:47:52.191Z,978.28
2019-04-22T07:48:51.863Z,978.28
2019-04-22T07:49:52.918Z,978.25
2019-04-22T07:50:55.730Z,978.25
2019-04-22T07:51:54.246Z,978.25
2019-04-22T07:52:51.402Z,978.25
2019-04-22T07:53:52.294Z,978.28
2019-04-22T07:54:52.438Z,978.22
2019-04-22T07:55:54.988Z,978.23
2019-04-22T07:56:51.854Z,978.25
2019-04-22T07:57:52.383Z,978.22
2019-04-22T07:58:49.072Z,978.23
2019-04-22T08:00:01.028Z,978.18
2019-04-22T08:00:57.677Z,978.17
2019-04-22T08:01:48.446Z,978.18
2019-04-22T08:02:59.156Z,978.16
2019-04-22T08:04:05.235Z,978.16
2019-04-22T08:05:05.100Z,978.19
2019-04-22T08:05:58.864Z,978.19
2019-04-22T08:07:53.510Z,978.17
2019-04-22T08:08:58.375Z,978.14
2019-04-22T08:10:00.353Z,978.16
2019-04-22T08:12:12.005Z,978.13
2019-04-22T08:12:51.826Z,978.10
2019-04-22T08:13:46.997Z,978.11
2019-04-22T08:14:52.393Z,978.08
2019-04-22T08:15:55.421Z,978.04
2019-04-22T08:16:51.334Z,978.04
2019-04-22T08:18:47.320Z,978.03
2019-04-22T08:19:57.435Z,977.99
2019-04-22T08:20:56.714Z,978.02
2019-04-22T08:21:53.551Z,977.98
2019-04-22T08:23:50.868Z,978.02
2019-04-22T08:25:47.449Z,978.01
2019-04-22T08:26:56.069Z,977.97
2019-04-22T08:27:55.048Z,977.95
2019-04-22T08:28:51.759Z,977.97
2019-04-22T08:30:04.637Z,977.92
2019-04-22T08:30:53.615Z,977.94
2019-04-22T08:31:55.255Z,977.92
2019-04-22T08:32:55.953Z,977.89
2019-04-22T08:34:06.377Z,977.88
2019-04-22T08:34:47.231Z,977.91
2019-04-22T08:37:22.826Z,977.91
2019-04-22T08:37:51.212Z,977.95
2019-04-22T08:38:52.865Z,977.92
2019-04-22T08:39:52.153Z,977.92
2019-04-22T08:40:56.867Z,977.91
2019-04-22T08:41:43.509Z,977.88
2019-04-22T08:42:58.388Z,977.84
2019-04-22T08:43:57.842Z,977.87
2019-04-22T08:45:07.995Z,977.89
2019-04-22T08:45:51.453Z,977.87
2019-04-22T08:46:57.502Z,977.87
2019-04-22T08:47:51.248Z,977.85
2019-04-22T08:49:04.488Z,977.85
2019-04-22T08:49:57.094Z,977.77
2019-04-22T08:50:52.837Z,977.77
2019-04-22T08:51:49.085Z,977.77
2019-04-22T08:52:48.150Z,977.75
2019-04-22T08:53:57.514Z,977.77
2019-04-22T08:54:51.300Z,977.74
2019-04-22T08:55:56.051Z,977.73
2019-04-22T08:58:13.019Z,977.65
2019-04-22T08:59:00.028Z,977.61
2019-04-22T08:59:48.994Z,977.62
2019-04-22T09:01:46.300Z,977.62
2019-04-22T09:02:55.501Z,977.56
2019-04-22T09:03:52.722Z,977.59
2019-04-22T09:04:49.455Z,977.56
2019-04-22T09:07:12.718Z,977.55
2019-04-22T09:08:09.346Z,977.49
2019-04-22T09:08:55.214Z,977.51
2019-04-22T09:09:50.629Z,977.53
2019-04-22T09:10:50.326Z,977.45
2019-04-22T09:11:57.741Z,977.42
2019-04-22T09:12:57.751Z,977.46
2019-04-22T09:13:50.547Z,977.46
2019-04-22T09:14:45.713Z,977.39
2019-04-22T09:15:49.104Z,977.38
2019-04-22T09:16:48.599Z,977.36
2019-04-22T09:18:51.930Z,977.31
2019-04-22T09:19:47.775Z,977.30
2019-04-22T09:20:57.227Z,977.33
2019-04-22T09:21:57.542Z,977.35
2019-04-22T09:22:59.112Z,977.32
2019-04-22T09:23:57.171Z,977.29
2019-04-22T09:24:48.942Z,977.30
2019-04-22T09:25:48.473Z,977.31
2019-04-22T09:26:47.464Z,977.31
2019-04-22T09:27:49.854Z,977.28
2019-04-22T09:28:50.924Z,977.26
2019-04-22T09:31:57.350Z,977.22
2019-04-22T09:32:56.363Z,977.20
2019-04-22T09:34:01.505Z,977.18
2019-04-22T09:34:47.647Z,977.14
2019-04-22T09:35:52.407Z,977.18
2019-04-22T09:36:50.243Z,977.13
2019-04-22T09:53:14.855Z,976.96
2019-04-22T09:54:20.097Z,976.94
2019-04-22T09:55:15.513Z,976.86
2019-04-22T09:56:03.867Z,976.85
2019-04-22T09:57:02.167Z,976.84
2019-04-22T09:58:03.189Z,976.87
2019-04-22T09:59:05.546Z,976.86
2019-04-22T10:01:13.227Z,976.79
2019-04-22T10:02:22.019Z,976.84
2019-04-22T10:03:10.035Z,976.81
2019-04-22T10:05:07.844Z,976.78
2019-04-22T10:06:21.141Z,976.79
2019-04-22T10:06:59.721Z,976.72
2019-04-22T10:08:12.713Z,976.72
2019-04-22T10:10:09.361Z,976.62
2019-04-22T10:11:04.779Z,976.66
2019-04-22T10:12:02.707Z,976.61
2019-04-22T10:13:04.699Z,976.61
2019-04-22T10:14:06.101Z,976.66
2019-04-22T10:14:59.818Z,976.64
2019-04-22T10:16:59.961Z,976.56
2019-04-22T10:18:03.668Z,976.61
2019-04-22T10:19:04.197Z,976.59
2019-04-22T10:20:06.782Z,976.55
2019-04-22T10:21:12.407Z,976.57
2019-04-22T10:22:08.000Z,976.58
2019-04-22T10:23:05.456Z,976.54
2019-04-22T10:24:04.795Z,976.47
2019-04-22T10:25:03.961Z,976.42
2019-04-22T10:26:16.019Z,976.44
2019-04-22T10:28:14.874Z,976.48
2019-04-22T10:29:14.012Z,976.39
2019-04-22T10:31:11.238Z,976.39
2019-04-22T10:32:07.132Z,976.41
2019-04-22T10:33:04.582Z,976.40
2019-04-22T10:33:56.062Z,976.39
2019-04-22T10:34:48.559Z,976.38
2019-04-22T10:35:43.563Z,976.34
2019-04-22T10:36:49.910Z,976.32
2019-04-22T10:37:52.172Z,976.29
2019-04-22T10:39:54.078Z,976.23
2019-04-22T10:40:47.822Z,976.24
2019-04-22T10:41:48.648Z,976.20
2019-04-22T10:42:56.843Z,976.14
2019-04-22T10:44:53.804Z,976.14
2019-04-22T10:46:02.001Z,976.19
2019-04-22T10:47:58.388Z,976.18
2019-04-22T10:49:06.430Z,976.16
2019-04-22T10:51:01.888Z,976.06
2019-04-22T10:52:02.679Z,976.09
2019-04-22T10:53:01.783Z,976.09
2019-04-22T10:54:11.357Z,976.04
2019-04-22T10:56:16.936Z,976.05
2019-04-22T10:57:06.677Z,976.01
2019-04-22T10:58:06.708Z,975.99
2019-04-22T10:59:06.806Z,975.99
2019-04-22T11:00:06.016Z,975.98
2019-04-22T11:01:15.771Z,975.89
2019-04-22T11:03:11.867Z,976.00
2019-04-22T11:04:11.205Z,975.91
2019-04-22T11:06:56.355Z,975.96
2019-04-22T11:07:53.982Z,975.96
2019-04-22T11:10:02.406Z,975.93
2019-04-22T11:11:00.408Z,975.93
2019-04-22T11:11:54.234Z,975.83
2019-04-22T11:12:47.159Z,975.83
2019-04-22T11:13:56.046Z,975.89
2019-04-22T11:16:11.649Z,975.71
2019-04-22T11:17:11.435Z,975.73
2019-04-22T11:19:05.560Z,975.73
2019-04-22T11:19:55.550Z,975.60
2019-04-22T11:21:05.397Z,975.62
2019-04-22T11:23:08.966Z,975.65
2019-04-22T11:24:00.722Z,975.57
2019-04-22T11:25:01.234Z,975.56
2019-04-22T11:25:59.820Z,975.61
2019-04-22T11:27:01.011Z,975.56
2019-04-22T11:28:00.033Z,975.54
2019-04-22T11:29:01.373Z,975.64
2019-04-22T11:30:08.525Z,975.59
2019-04-22T11:32:14.731Z,975.54
2019-04-22T11:33:04.563Z,975.59
2019-04-22T11:34:12.997Z,975.56
2019-04-22T11:36:17.867Z,975.60
2019-04-22T11:37:08.432Z,975.58
2019-04-22T11:38:08.779Z,975.54
2019-04-22T11:39:17.191Z,975.49
2019-04-22T11:41:14.786Z,975.46
2019-04-22T11:42:14.093Z,975.49
2019-04-22T11:43:22.404Z,975.48
2019-04-22T11:45:19.255Z,975.47
2019-04-22T11:47:51.080Z,975.44
2019-04-22T11:48:50.120Z,975.44
2019-04-22T11:49:59.743Z,975.38
2019-04-22T11:51:55.991Z,975.39
2019-04-22T11:53:03.129Z,975.41
2019-04-22T11:54:58.961Z,975.36
2019-04-22T11:55:58.825Z,975.37
2019-04-22T11:56:59.039Z,975.42
2019-04-22T11:57:58.896Z,975.34
2019-04-22T11:58:58.729Z,975.32
2019-04-22T11:59:58.848Z,975.34
2019-04-22T12:00:59.217Z,975.30
2019-04-22T12:01:58.640Z,975.34
2019-04-22T12:02:58.799Z,975.26
2019-04-22T12:03:59.850Z,975.29
2019-04-22T12:04:58.545Z,975.27
2019-04-22T12:05:59.751Z,975.33
2019-04-22T12:07:00.016Z,975.34
2019-04-22T12:07:59.281Z,975.29
2019-04-22T12:08:59.606Z,975.26
2019-04-22T12:09:59.579Z,975.18
2019-04-22T12:11:00.902Z,975.25
2019-04-22T12:11:58.333Z,975.27
2019-04-22T12:12:59.523Z,975.25
2019-04-22T12:13:58.268Z,975.26
2019-04-22T12:14:58.703Z,975.21
2019-04-22T12:15:59.029Z,975.21
2019-04-22T12:16:59.320Z,975.19
2019-04-22T12:17:59.245Z,975.23
2019-04-22T12:18:58.763Z,975.15
2019-04-22T12:19:58.086Z,975.20
2019-04-22T12:20:59.117Z,975.17
2019-04-22T12:21:59.115Z,975.07
2019-04-22T12:22:58.988Z,975.16
2019-04-22T12:23:59.019Z,975.14
2019-04-22T12:24:58.641Z,975.14
2019-04-22T12:26:03.439Z,975.13
2019-04-22T12:26:58.099Z,975.08
2019-04-22T12:27:59.041Z,975.05
2019-04-22T12:28:59.222Z,975.06
2019-04-22T12:29:58.773Z,975.02
2019-04-22T12:30:57.744Z,975.01
2019-04-22T12:31:57.773Z,975.03
2019-04-22T12:32:58.116Z,974.99
2019-04-22T12:33:59.194Z,975.01
2019-04-22T12:34:57.626Z,974.93
2019-04-22T12:35:57.589Z,974.93
2019-04-22T12:36:58.519Z,974.87
2019-04-22T12:38:01.298Z,974.86
2019-04-22T12:38:57.780Z,974.89
2019-04-22T12:39:58.293Z,974.88
2019-04-22T12:41:01.209Z,974.84
2019-04-22T12:41:58.357Z,974.77
2019-04-22T12:42:57.635Z,974.76
2019-04-22T12:43:58.883Z,974.81
2019-04-22T12:44:58.333Z,974.77
2019-04-22T12:45:58.275Z,974.77
2019-04-22T12:46:57.258Z,974.81
2019-04-22T12:47:57.924Z,974.77
2019-04-22T12:51:40.988Z,974.71
2019-04-22T12:52:47.881Z,974.72
2019-04-22T12:53:40.332Z,974.61
2019-04-22T12:54:40.290Z,974.71
2019-04-22T12:55:41.851Z,974.67
2019-04-22T12:56:41.782Z,974.67
2019-04-22T12:57:40.888Z,974.66
2019-04-22T12:58:41.211Z,974.66
2019-04-22T12:59:41.520Z,974.63
2019-04-22T13:00:40.417Z,974.60
2019-04-22T13:01:40.081Z,974.58
2019-04-22T13:02:40.948Z,974.52
2019-04-22T13:03:40.269Z,974.52
2019-04-22T13:04:40.561Z,974.51
2019-04-22T13:05:40.988Z,974.45
2019-04-22T13:06:41.956Z,974.42
2019-04-22T13:07:40.035Z,974.47
2019-04-22T13:08:41.241Z,974.43
2019-04-22T13:09:41.122Z,974.44
2019-04-22T13:10:49.543Z,974.38
2019-04-22T13:11:40.710Z,974.40
2019-04-22T13:12:39.753Z,974.37
2019-04-22T13:13:40.775Z,974.31
2019-04-22T13:14:40.739Z,974.30
2019-04-22T13:15:41.157Z,974.30
2019-04-22T13:16:40.719Z,974.29
2019-04-22T13:17:39.875Z,974.28
2019-04-22T13:18:47.321Z,974.29
2019-04-22T13:19:40.423Z,974.25
2019-04-22T13:20:39.539Z,974.20
2019-04-22T13:21:40.572Z,974.22
2019-04-22T13:22:40.837Z,974.25
2019-04-22T13:23:39.452Z,974.19
2019-04-22T13:24:39.701Z,974.23
2019-04-22T13:25:40.753Z,974.22
2019-04-22T13:26:41.036Z,974.21
2019-04-22T13:27:39.358Z,974.12
2019-04-22T13:28:39.276Z,974.14
2019-04-22T13:29:39.331Z,974.10
2019-04-22T13:32:18.672Z,974.10
2019-04-22T13:33:19.241Z,974.11
2019-04-22T13:34:28.304Z,974.09
2019-04-22T13:35:19.939Z,974.04
2019-04-22T13:36:21.789Z,974.00
2019-04-22T13:37:19.120Z,974.01
2019-04-22T13:38:19.251Z,973.98
2019-04-22T13:39:18.801Z,973.96
2019-04-22T13:40:19.203Z,973.99
2019-04-22T13:42:20.375Z,973.90
2019-04-22T13:43:18.788Z,973.85
2019-04-22T13:44:18.941Z,973.94
2019-04-22T13:45:18.189Z,973.95
2019-04-22T13:46:20.036Z,973.89
2019-04-22T13:47:35.084Z,973.86
2019-04-22T13:48:38.719Z,973.79
2019-04-22T13:49:49.486Z,973.80
2019-04-22T13:50:49.384Z,973.81
2019-04-22T13:52:00.988Z,973.78
2019-04-22T13:53:53.453Z,973.93
2019-04-22T13:54:19.376Z,973.76
2019-04-22T13:54:59.829Z,973.77
2019-04-22T13:55:54.720Z,973.77
2019-04-22T13:56:43.918Z,973.76
2019-04-22T13:57:42.577Z,973.73
2019-04-22T13:58:37.152Z,973.74
2019-04-22T13:59:32.230Z,973.73
2019-04-22T14:00:24.748Z,973.74
2019-04-22T14:01:23.153Z,973.69
2019-04-22T14:02:24.287Z,973.64
2019-04-22T14:03:24.538Z,973.66
2019-04-22T14:04:22.987Z,973.70
2019-04-22T14:05:24.454Z,973.68
2019-04-22T14:06:22.920Z,973.62
2019-04-22T14:07:23.174Z,973.65
2019-04-22T14:08:22.984Z,973.61
2019-04-22T14:09:24.310Z,973.59
2019-04-22T14:10:22.894Z,973.61
2019-04-22T14:11:34.550Z,973.55
2019-04-22T14:12:22.751Z,973.58
2019-04-22T14:13:23.760Z,973.55
2019-04-22T14:14:23.899Z,973.59
2019-04-22T14:15:24.230Z,973.55
2019-04-22T14:16:22.761Z,973.49
2019-04-22T14:17:23.003Z,973.55
2019-04-22T14:18:23.206Z,973.47
2019-04-22T14:19:23.648Z,973.55
2019-04-22T14:20:25.124Z,973.49
2019-04-22T14:21:22.885Z,973.46
2019-04-22T14:22:22.435Z,973.49
2019-04-22T14:23:22.619Z,973.47
2019-04-22T14:24:23.619Z,973.48
2019-04-22T14:25:22.985Z,973.49
2019-04-22T14:26:23.032Z,973.49
2019-04-22T14:27:34.707Z,973.44
2019-04-22T14:28:23.844Z,973.47
2019-04-22T14:29:22.245Z,973.42
2019-04-22T14:30:22.235Z,973.46
2019-04-22T14:31:22.413Z,973.49
2019-04-22T14:32:27.136Z,973.53
2019-04-22T14:33:22.390Z,973.49
2019-04-22T14:34:22.077Z,973.46
2019-04-22T14:35:22.992Z,973.44
2019-04-22T14:36:23.318Z,973.44
2019-04-22T14:37:22.343Z,973.35
2019-04-22T14:38:21.988Z,973.38
2019-04-22T14:39:22.042Z,973.40
2019-04-22T14:40:22.952Z,973.35